createdAt,value
2019-04-01T00:01:57.936Z,6.70
2019-04-01T00:04:27.381Z,6.70
2019-04-01T00:06:56.893Z,6.70
2019-04-01T00:09:26.422Z,6.70
2019-04-01T00:11:55.927Z,6.70
2019-04-01T00:14:25.453Z,6.90
2019-04-01T00:16:54.946Z,7.10
2019-04-01T00:19:24.493Z,7.20
2019-04-01T00:21:53.983Z,7.10
2019-04-01T00:24:23.417Z,6.90
2019-04-01T00:26:53.052Z,6.80
2019-04-01T00:29:22.527Z,6.80
2019-04-01T00:31:52.044Z,6.60
2019-04-01T00:34:21.694Z,6.60
2019-04-01T00:36:51.243Z,6.60
2019-04-01T00:39:20.697Z,6.60
2019-04-01T00:42:18.269Z,6.60
2019-04-01T00:44:47.861Z,6.60
2019-04-01T00:47:17.328Z,6.50
2019-04-01T00:49:46.797Z,6.50
2019-04-01T00:52:16.244Z,6.60
2019-04-01T00:54:45.803Z,6.60
2019-04-01T00:57:15.325Z,6.60
2019-04-01T00:59:44.845Z,6.70
2019-04-01T01:02:14.424Z,6.60
2019-04-01T01:04:43.959Z,6.60
2019-04-01T01:07:13.438Z,6.50
2019-04-01T01:09:43.075Z,6.60
2019-04-01T01:12:12.571Z,6.60
2019-04-01T01:14:42.078Z,6.60
2019-04-01T01:17:11.744Z,6.50
2019-04-01T01:19:41.352Z,6.50
2019-04-01T01:22:11.013Z,6.40
2019-04-01T01:24:40.524Z,6.30
2019-04-01T01:27:09.986Z,6.10
2019-04-01T01:29:39.616Z,5.90
2019-04-01T01:32:09.068Z,5.80
2019-04-01T01:34:38.548Z,5.70
2019-04-01T01:37:08.515Z,5.60
2019-04-01T01:39:38.018Z,5.50
2019-04-01T01:42:07.615Z,5.50
2019-04-01T01:44:37.134Z,5.50
2019-04-01T01:47:06.637Z,5.40
2019-04-01T01:49:36.064Z,5.20
2019-04-01T01:52:05.605Z,5.10
2019-04-01T01:54:35.177Z,5.10
2019-04-01T01:57:04.685Z,5.10
2019-04-01T01:59:34.600Z,5.10
2019-04-01T02:02:04.215Z,5.00
2019-04-01T02:04:33.677Z,4.90
2019-04-01T02:07:03.414Z,5.00
2019-04-01T02:09:33.240Z,5.00
2019-04-01T02:12:02.810Z,4.90
2019-04-01T02:14:32.352Z,5.00
2019-04-01T02:17:01.862Z,5.10
2019-04-01T02:19:31.330Z,5.10
2019-04-01T02:22:01.071Z,5.00
2019-04-01T02:24:30.634Z,5.10
2019-04-01T02:27:00.178Z,5.00
2019-04-01T02:29:29.775Z,4.90
2019-04-01T02:31:59.321Z,4.80
2019-04-01T02:34:28.818Z,4.60
2019-04-01T02:36:58.413Z,4.50
2019-04-01T02:39:27.879Z,4.40
2019-04-01T02:41:57.406Z,4.40
2019-04-01T02:44:26.996Z,4.40
2019-04-01T02:46:56.517Z,4.40
2019-04-01T02:49:26.052Z,4.30
2019-04-01T02:51:55.946Z,4.30
2019-04-01T02:54:25.491Z,4.20
2019-04-01T02:56:55.626Z,4.20
2019-04-01T02:59:25.094Z,4.10
2019-04-01T03:01:54.628Z,4.40
2019-04-01T03:04:24.125Z,4.40
2019-04-01T03:06:53.776Z,4.50
2019-04-01T03:09:23.292Z,4.40
2019-04-01T03:11:52.755Z,4.40
2019-04-01T03:14:22.326Z,4.40
2019-04-01T03:16:51.842Z,4.30
2019-04-01T03:19:21.291Z,4.30
2019-04-01T03:21:50.710Z,4.20
2019-04-01T03:24:20.314Z,4.20
2019-04-01T03:26:49.754Z,4.10
2019-04-01T03:29:19.306Z,4.00
2019-04-01T03:31:48.774Z,4.00
2019-04-01T03:34:18.431Z,4.00
2019-04-01T03:36:47.937Z,4.00
2019-04-01T03:39:17.470Z,4.00
2019-04-01T03:41:47.097Z,4.00
2019-04-01T03:44:16.576Z,4.00
2019-04-01T03:46:46.114Z,3.80
2019-04-01T03:49:15.701Z,3.80
2019-04-01T03:51:45.188Z,3.70
2019-04-01T03:54:14.687Z,3.60
2019-04-01T03:56:44.296Z,3.50
2019-04-01T03:59:13.778Z,3.40
2019-04-01T04:01:43.921Z,3.40
2019-04-01T04:04:13.458Z,3.40
2019-04-01T04:06:43.046Z,3.30
2019-04-01T04:09:12.573Z,3.20
2019-04-01T04:11:42.538Z,3.20
2019-04-01T04:14:12.100Z,3.30
2019-04-01T04:16:41.623Z,3.30
2019-04-01T04:19:11.140Z,3.30
2019-04-01T04:21:40.638Z,3.30
2019-04-01T04:24:10.087Z,3.30
2019-04-01T04:26:39.796Z,3.30
2019-04-01T04:29:09.222Z,3.30
2019-04-01T04:31:38.645Z,3.30
2019-04-01T04:34:08.145Z,3.30
2019-04-01T04:36:37.766Z,3.10
2019-04-01T04:39:07.885Z,3.00
2019-04-01T04:41:37.425Z,2.90
2019-04-01T04:44:07.333Z,2.90
2019-04-01T04:46:36.874Z,2.90
2019-04-01T04:49:06.521Z,2.80
2019-04-01T04:51:36.046Z,2.80
2019-04-01T04:54:05.541Z,2.70
2019-04-01T04:56:35.040Z,2.70
2019-04-01T04:59:04.502Z,2.70
2019-04-01T05:01:34.104Z,2.70
2019-04-01T05:04:03.587Z,2.70
2019-04-01T05:06:33.221Z,2.70
2019-04-01T05:09:02.813Z,2.80
2019-04-01T05:11:32.369Z,2.80
2019-04-01T05:14:01.913Z,2.80
2019-04-01T05:16:31.475Z,2.80
2019-04-01T05:19:00.989Z,2.80
2019-04-01T05:21:30.892Z,2.90
2019-04-01T05:24:01.956Z,3.00
2019-04-01T05:26:33.982Z,3.20
2019-04-01T05:29:04.589Z,3.30
2019-04-01T05:31:35.811Z,3.40
2019-04-01T05:34:05.379Z,3.40
2019-04-01T05:36:34.873Z,3.50
2019-04-01T05:39:06.305Z,3.50
2019-04-01T05:41:36.027Z,3.60
2019-04-01T05:44:05.619Z,3.80
2019-04-01T05:46:35.398Z,3.90
2019-04-01T05:49:05.037Z,4.10
2019-04-01T05:51:34.769Z,4.20
2019-04-01T05:54:04.266Z,4.30
2019-04-01T05:56:33.758Z,4.50
2019-04-01T05:59:03.350Z,4.70
2019-04-01T06:01:37.457Z,4.80
2019-04-01T06:04:07.071Z,4.90
2019-04-01T06:06:36.616Z,5.10
2019-04-01T06:09:08.413Z,5.20
2019-04-01T06:11:39.164Z,5.40
2019-04-01T06:14:08.677Z,5.60
2019-04-01T06:16:38.753Z,6.10
2019-04-01T06:19:08.265Z,6.60
2019-04-01T06:21:37.795Z,6.90
2019-04-01T06:24:07.287Z,7.30
2019-04-01T06:26:36.743Z,7.40
2019-04-01T06:29:06.212Z,7.30
2019-04-01T06:31:35.702Z,7.30
2019-04-01T06:34:05.409Z,7.70
2019-04-01T06:36:34.860Z,8.00
2019-04-01T06:39:06.720Z,8.00
2019-04-01T06:41:36.468Z,7.90
2019-04-01T06:44:06.309Z,7.60
2019-04-01T06:46:35.720Z,7.80
2019-04-01T06:49:05.454Z,7.90
2019-04-01T06:51:34.868Z,8.00
2019-04-01T06:54:04.373Z,8.70
2019-04-01T06:56:33.977Z,9.80
2019-04-01T06:59:03.456Z,10.70
2019-04-01T07:01:33.032Z,11.20
2019-04-01T07:04:02.633Z,10.70
2019-04-01T07:06:32.156Z,10.70
2019-04-01T07:09:02.070Z,10.70
2019-04-01T07:11:31.758Z,10.30
2019-04-01T07:14:01.628Z,10.10
2019-04-01T07:16:31.221Z,9.80
2019-04-01T07:19:00.792Z,10.20
2019-04-01T07:21:30.280Z,10.10
2019-04-01T07:23:59.738Z,10.60
2019-04-01T07:26:29.377Z,11.50
2019-04-01T07:28:58.918Z,12.40
2019-04-01T07:31:28.352Z,12.00
2019-04-01T07:33:57.952Z,11.90
2019-04-01T07:36:27.560Z,11.90
2019-04-01T07:38:57.148Z,12.10
2019-04-01T07:41:38.180Z,11.90
2019-04-01T07:44:07.636Z,12.40
2019-04-01T07:46:36.992Z,13.10
2019-04-01T07:49:06.403Z,13.80
2019-04-01T07:51:38.454Z,14.30
2019-04-01T07:54:06.920Z,14.50
2019-04-01T07:56:36.444Z,14.60
2019-04-01T07:59:05.946Z,14.90
2019-04-01T08:01:35.300Z,15.30
2019-04-01T08:04:04.714Z,15.20
2019-04-01T08:06:34.152Z,15.80
2019-04-01T08:09:04.863Z,17.00
2019-04-01T08:11:34.307Z,17.60
2019-04-01T08:14:04.844Z,18.40
2019-04-01T08:16:34.406Z,19.20
2019-04-01T08:19:03.782Z,20.20
2019-04-01T08:21:33.753Z,20.60
2019-04-01T08:24:03.117Z,21.30
2019-04-01T08:26:32.629Z,21.10
2019-04-01T08:29:02.086Z,21.50
2019-04-01T08:31:31.653Z,21.80
2019-04-01T08:34:01.035Z,21.40
2019-04-01T08:36:30.864Z,20.50
2019-04-01T08:39:00.293Z,20.80
2019-04-01T08:41:29.627Z,21.50
2019-04-01T08:44:03.107Z,21.10
2019-04-01T08:46:30.852Z,21.10
2019-04-01T08:49:00.691Z,20.20
2019-04-01T08:51:30.409Z,21.30
2019-04-01T08:54:00.587Z,22.10
2019-04-01T08:56:30.026Z,22.50
2019-04-01T08:58:59.438Z,23.60
2019-04-01T09:01:35.236Z,23.50
2019-04-01T09:04:00.035Z,23.70
2019-04-01T09:06:31.320Z,24.00
2019-04-01T09:09:01.256Z,24.00
2019-04-01T09:11:30.869Z,25.00
2019-04-01T09:14:00.544Z,24.00
2019-04-01T09:16:30.564Z,24.10
2019-04-01T09:18:59.997Z,24.50
2019-04-01T09:21:29.617Z,23.40
2019-04-01T09:23:58.972Z,22.80
2019-04-01T09:26:28.298Z,24.00
2019-04-01T09:28:57.668Z,24.00
2019-04-01T09:31:27.006Z,23.40
2019-04-01T09:33:56.382Z,22.60
2019-04-01T09:36:26.071Z,23.20
2019-04-01T09:38:55.487Z,24.70
2019-04-01T09:41:24.849Z,24.60
2019-04-01T09:43:54.277Z,24.50
2019-04-01T09:46:23.984Z,25.50
2019-04-01T09:48:53.362Z,25.00
2019-04-01T09:51:22.726Z,24.00
2019-04-01T09:53:52.043Z,24.30
2019-04-01T09:56:21.395Z,24.30
2019-04-01T09:58:51.022Z,25.10
2019-04-01T10:01:20.455Z,25.30
2019-04-01T10:03:49.818Z,25.10
2019-04-01T10:06:19.205Z,25.00
2019-04-01T10:08:48.947Z,23.80
2019-04-01T10:11:18.349Z,23.00
2019-04-01T10:13:47.764Z,23.70
2019-04-01T10:16:17.170Z,23.80
2019-04-01T10:18:46.632Z,24.40
2019-04-01T10:21:16.024Z,24.90
2019-04-01T10:23:45.397Z,25.10
2019-04-01T10:26:14.816Z,25.20
2019-04-01T10:28:44.226Z,24.90
2019-04-01T10:31:13.756Z,24.60
2019-04-01T10:33:43.125Z,24.60
2019-04-01T10:36:12.522Z,25.30
2019-04-01T10:38:41.906Z,25.00
2019-04-01T10:41:11.588Z,24.70
2019-04-01T10:43:40.954Z,24.40
2019-04-01T10:46:12.175Z,22.70
2019-04-01T10:48:41.508Z,22.80
2019-04-01T10:51:10.877Z,24.00
2019-04-01T10:53:40.510Z,23.00
2019-04-01T10:56:10.015Z,23.30
2019-04-01T10:58:39.449Z,22.60
2019-04-01T11:01:08.916Z,23.00
2019-04-01T11:03:38.422Z,23.00
2019-04-01T11:06:07.908Z,23.50
2019-04-01T11:08:37.501Z,23.20
2019-04-01T11:11:06.998Z,23.00
2019-04-01T11:13:36.405Z,23.40
2019-04-01T11:16:05.885Z,23.40
2019-04-01T11:18:35.301Z,22.70
2019-04-01T11:21:05.390Z,22.20
2019-04-01T11:23:35.411Z,21.80
2019-04-01T11:26:04.891Z,22.90
2019-04-01T11:28:34.768Z,23.60
2019-04-01T11:31:04.787Z,23.10
2019-04-01T11:33:34.305Z,23.10
2019-04-01T11:36:03.779Z,23.30
2019-04-01T11:38:33.381Z,24.10
2019-04-01T11:41:02.843Z,23.70
2019-04-01T11:43:35.365Z,23.00
2019-04-01T11:46:03.417Z,22.40
2019-04-01T11:48:32.921Z,22.20
2019-04-01T11:51:02.587Z,22.10
2019-04-01T11:53:32.088Z,22.90
2019-04-01T11:56:01.489Z,23.00
2019-04-01T11:58:30.994Z,22.30
2019-04-01T12:01:00.526Z,22.70
2019-04-01T12:03:29.905Z,22.30
2019-04-01T12:05:59.337Z,22.00
2019-04-01T12:08:29.754Z,21.80
2019-04-01T12:11:00.056Z,22.10
2019-04-01T12:13:29.452Z,22.40
2019-04-01T12:15:58.942Z,22.50
2019-04-01T12:18:28.332Z,22.80
2019-04-01T12:20:57.746Z,22.50
2019-04-01T12:23:27.326Z,22.80
2019-04-01T12:25:56.750Z,22.80
2019-04-01T12:28:26.128Z,22.70
2019-04-01T12:30:55.517Z,22.60
2019-04-01T12:33:26.301Z,22.40
2019-04-01T12:35:56.240Z,22.60
2019-04-01T12:38:25.641Z,22.40
2019-04-01T12:40:55.054Z,22.70
2019-04-01T12:43:24.423Z,22.70
2019-04-01T12:45:53.891Z,22.80
2019-04-01T12:48:25.425Z,22.40
2019-04-01T12:50:54.577Z,22.20
2019-04-01T12:53:23.964Z,21.70
2019-04-01T12:55:53.373Z,21.90
2019-04-01T12:58:25.179Z,22.20
2019-04-01T13:00:53.860Z,21.90
2019-04-01T13:03:23.417Z,21.60
2019-04-01T13:05:54.336Z,21.60
2019-04-01T13:08:24.239Z,21.70
2019-04-01T13:10:56.476Z,21.80
2019-04-01T13:13:25.379Z,22.00
2019-04-01T13:15:54.827Z,21.70
2019-04-01T13:18:24.186Z,21.90
2019-04-01T13:20:53.727Z,21.00
2019-04-01T13:23:23.259Z,20.90
2019-04-01T13:25:52.596Z,20.80
2019-04-01T13:28:21.973Z,20.90
2019-04-01T13:30:51.319Z,21.00
2019-04-01T13:33:20.747Z,21.50
2019-04-01T13:35:50.282Z,22.20
2019-04-01T13:38:19.665Z,22.70
2019-04-01T13:40:49.019Z,22.80
2019-04-01T13:43:18.428Z,21.90
2019-04-01T13:45:47.826Z,21.30
2019-04-01T13:48:17.428Z,21.40
2019-04-01T13:50:46.826Z,22.00
2019-04-01T13:53:16.294Z,23.50
2019-04-01T13:55:45.676Z,24.10
2019-04-01T13:58:17.588Z,24.00
2019-04-01T14:00:46.383Z,23.50
2019-04-01T14:03:15.801Z,23.10
2019-04-01T14:05:45.158Z,23.30
2019-04-01T14:08:14.574Z,22.80
2019-04-01T14:10:44.080Z,22.30
2019-04-01T14:13:13.558Z,22.90
2019-04-01T14:15:42.928Z,23.50
2019-04-01T14:18:12.344Z,24.40
2019-04-01T14:20:42.041Z,24.80
2019-04-01T14:23:11.416Z,25.00
2019-04-01T14:25:40.876Z,25.40
2019-04-01T14:28:10.283Z,25.40
2019-04-01T14:30:39.888Z,25.80
2019-04-01T14:33:09.250Z,25.20
2019-04-01T14:35:38.620Z,24.40
2019-04-01T14:38:25.684Z,24.70
2019-04-01T14:40:58.039Z,24.60
2019-04-01T14:43:26.216Z,24.40
2019-04-01T14:45:55.810Z,24.10
2019-04-01T14:48:25.203Z,23.90
2019-04-01T14:50:54.600Z,23.10
2019-04-01T14:53:23.979Z,22.90
2019-04-01T14:55:53.600Z,22.20
2019-04-01T14:58:23.180Z,22.60
2019-04-01T15:00:53.379Z,22.50
2019-04-01T15:03:22.820Z,22.00
2019-04-01T15:05:52.526Z,21.40
2019-04-01T15:08:21.907Z,21.20
2019-04-01T15:10:51.344Z,20.70
2019-04-01T15:13:20.832Z,20.00
2019-04-01T15:15:50.293Z,19.80
2019-04-01T15:18:19.684Z,20.10
2019-04-01T15:20:49.062Z,20.40
2019-04-01T15:23:19.509Z,20.30
2019-04-01T15:25:50.214Z,20.00
2019-04-01T15:28:20.706Z,20.20
2019-04-01T15:30:50.088Z,20.50
2019-04-01T15:33:21.154Z,20.90
2019-04-01T15:35:51.014Z,20.80
2019-04-01T15:38:22.086Z,20.60
2019-04-01T15:40:57.980Z,20.40
2019-04-01T15:43:43.572Z,20.30
2019-04-01T15:46:13.157Z,20.10
2019-04-01T15:48:42.671Z,20.10
2019-04-01T15:51:16.208Z,20.00
2019-04-01T15:53:45.874Z,19.70
2019-04-01T15:56:15.384Z,19.60
2019-04-01T15:58:45.144Z,19.60
2019-04-01T16:01:14.723Z,19.60
2019-04-01T16:03:44.519Z,19.70
2019-04-01T16:06:14.061Z,20.00
2019-04-01T16:08:43.754Z,20.10
2019-04-01T16:11:13.358Z,20.20
2019-04-01T16:14:36.653Z,20.20
2019-04-01T16:17:06.706Z,20.00
2019-04-01T16:19:36.630Z,19.80
2019-04-01T16:22:06.146Z,19.50
2019-04-01T16:25:13.206Z,19.00
2019-04-01T16:27:43.049Z,18.40
2019-04-01T16:30:13.173Z,18.20
2019-04-01T16:32:42.800Z,18.10
2019-04-01T16:35:30.167Z,18.00
2019-04-01T16:37:59.848Z,17.80
2019-04-01T16:40:29.834Z,17.60
2019-04-01T16:42:59.346Z,17.40
2019-04-01T16:45:28.896Z,17.20
2019-04-01T16:47:58.472Z,17.20
2019-04-01T16:50:30.075Z,17.10
2019-04-01T16:52:59.817Z,17.10
2019-04-01T16:55:29.440Z,17.00
2019-04-01T16:57:59.074Z,16.90
2019-04-01T17:00:28.583Z,16.80
2019-04-01T17:02:58.093Z,16.60
2019-04-01T17:05:33.111Z,16.30
2019-04-01T17:08:03.590Z,16.00
2019-04-01T17:10:33.504Z,15.70
2019-04-01T17:13:03.551Z,15.50
2019-04-01T17:15:33.429Z,15.20
2019-04-01T17:18:02.864Z,14.90
2019-04-01T17:20:32.394Z,14.70
2019-04-01T17:23:02.775Z,14.60
2019-04-01T17:25:32.427Z,14.50
2019-04-01T17:28:02.266Z,14.50
2019-04-01T17:30:32.034Z,14.30
2019-04-01T17:33:01.533Z,14.20
2019-04-01T17:35:31.203Z,14.00
2019-04-01T17:38:00.765Z,13.80
2019-04-01T17:40:30.720Z,13.70
2019-04-01T17:43:00.303Z,13.40
2019-04-01T17:45:40.756Z,13.30
2019-04-01T17:48:10.773Z,13.10
2019-04-01T17:50:41.345Z,13.10
2019-04-01T17:53:11.784Z,13.10
2019-04-01T17:55:41.553Z,13.00
2019-04-01T17:58:11.266Z,12.70
2019-04-01T18:00:44.683Z,12.50
2019-04-01T18:03:14.343Z,12.20
2019-04-01T18:05:44.166Z,12.00
2019-04-01T18:08:13.860Z,11.90
2019-04-01T18:10:43.485Z,11.70
2019-04-01T18:13:13.697Z,11.50
2019-04-01T18:15:44.245Z,11.40
2019-04-01T18:18:26.107Z,11.40
2019-04-01T18:20:46.559Z,11.30
2019-04-01T18:23:16.198Z,11.20
2019-04-01T18:25:45.861Z,11.10
2019-04-01T18:28:15.389Z,11.10
2019-04-01T18:30:45.287Z,11.30
2019-04-01T18:33:14.891Z,11.40
2019-04-01T18:35:45.052Z,11.70
2019-04-01T18:38:14.880Z,11.60
2019-04-01T18:40:44.379Z,11.50
2019-04-01T18:43:14.098Z,11.50
2019-04-01T18:45:43.575Z,11.50
2019-04-01T18:48:14.766Z,11.50
2019-04-01T18:50:44.319Z,11.70
2019-04-01T18:53:14.176Z,11.70
2019-04-01T18:55:43.776Z,11.50
2019-04-01T18:58:13.529Z,11.30
2019-04-01T19:01:04.294Z,11.10
2019-04-01T19:03:45.546Z,10.80
2019-04-01T19:06:14.451Z,10.70
2019-04-01T19:08:44.054Z,10.60
2019-04-01T19:11:14.010Z,10.50
2019-04-01T19:13:43.689Z,10.50
2019-04-01T19:16:16.281Z,10.40
2019-04-01T19:18:44.541Z,10.40
2019-04-01T19:21:14.343Z,10.30
2019-04-01T19:23:43.973Z,10.30
2019-04-01T19:26:13.700Z,10.30
2019-04-01T19:28:43.405Z,10.20
2019-04-01T19:31:12.959Z,10.20
2019-04-01T19:33:42.723Z,10.10
2019-04-01T19:36:12.392Z,10.00
2019-04-01T19:38:41.984Z,9.90
2019-04-01T19:41:11.589Z,9.80
2019-04-01T19:43:41.256Z,9.80
2019-04-01T19:46:10.924Z,9.70
2019-04-01T19:48:40.698Z,9.60
2019-04-01T19:51:10.200Z,9.60
2019-04-01T19:53:39.796Z,9.60
2019-04-01T19:56:09.527Z,9.60
2019-04-01T19:58:39.129Z,9.70
2019-04-01T20:01:08.727Z,9.70
2019-04-01T20:03:39.507Z,9.70
2019-04-01T20:06:09.285Z,9.70
2019-04-01T20:08:38.823Z,9.60
2019-04-01T20:11:08.363Z,9.60
2019-04-01T20:13:39.299Z,9.60
2019-04-01T20:16:10.297Z,9.50
2019-04-01T20:18:40.277Z,9.40
2019-04-01T20:21:10.834Z,9.40
2019-04-01T20:23:40.933Z,9.40
2019-04-01T20:26:10.672Z,9.30
2019-04-01T20:28:40.260Z,9.10
2019-04-01T20:31:10.014Z,8.90
2019-04-01T20:33:40.974Z,8.80
2019-04-01T20:36:10.825Z,8.70
2019-04-01T20:38:40.334Z,8.60
2019-04-01T20:41:10.333Z,8.70
2019-04-01T20:43:39.937Z,8.90
2019-04-01T20:46:10.134Z,9.20
2019-04-01T20:48:40.642Z,9.20
2019-04-01T20:51:10.136Z,9.20
2019-04-01T20:53:39.779Z,9.10
2019-04-01T20:56:09.363Z,9.00
2019-04-01T20:58:38.876Z,9.00
2019-04-01T21:01:08.345Z,9.20
2019-04-01T21:03:38.040Z,9.30
2019-04-01T21:06:07.490Z,9.50
2019-04-01T21:08:38.091Z,9.60
2019-04-01T21:11:07.725Z,9.60
2019-04-01T21:13:37.341Z,9.60
2019-04-01T21:16:06.905Z,9.50
2019-04-01T21:18:36.480Z,9.40
2019-04-01T21:21:06.522Z,9.40
2019-04-01T21:23:36.142Z,9.20
2019-04-01T21:26:06.084Z,9.10
2019-04-01T21:28:36.061Z,9.00
2019-04-01T21:31:05.518Z,8.90
2019-04-01T21:33:35.049Z,8.70
2019-04-01T21:36:04.939Z,8.50
2019-04-01T21:38:34.429Z,8.30
2019-04-01T21:41:04.074Z,8.20
2019-04-01T21:43:33.541Z,8.10
2019-04-01T21:46:02.990Z,8.00
2019-04-01T21:48:32.703Z,8.00
2019-04-01T21:51:03.954Z,7.90
2019-04-01T21:53:33.450Z,7.80
2019-04-01T21:56:02.917Z,7.90
2019-04-01T21:58:32.543Z,7.90
2019-04-01T22:01:02.209Z,7.90
2019-04-01T22:03:32.046Z,7.90
2019-04-01T22:06:01.488Z,7.80
2019-04-01T22:08:31.341Z,7.70
2019-04-01T22:11:01.211Z,7.70
2019-04-01T22:13:31.143Z,7.60
2019-04-01T22:16:00.914Z,7.60
2019-04-01T22:18:32.821Z,7.50
2019-04-01T22:21:01.568Z,7.50
2019-04-01T22:23:31.064Z,7.50
2019-04-01T22:26:00.916Z,7.40
2019-04-01T22:28:30.401Z,7.50
2019-04-01T22:30:59.877Z,7.50
2019-04-01T22:33:29.398Z,7.50
2019-04-01T22:35:58.917Z,7.60
2019-04-01T22:38:28.357Z,7.60
2019-04-01T22:41:00.056Z,7.60
2019-04-01T22:43:29.434Z,7.60
2019-04-01T22:45:58.903Z,7.60
2019-04-01T22:48:28.567Z,7.50
2019-04-01T22:50:58.053Z,7.60
2019-04-01T22:53:27.541Z,7.60
2019-04-01T22:55:57.635Z,7.60
2019-04-01T22:58:27.636Z,7.50
2019-04-01T23:00:57.108Z,7.50
2019-04-01T23:03:26.540Z,7.40
2019-04-01T23:05:56.082Z,7.30
2019-04-01T23:08:25.601Z,7.30
2019-04-01T23:10:56.405Z,7.10
2019-04-01T23:13:25.973Z,7.10
2019-04-01T23:15:55.397Z,7.10
2019-04-01T23:18:25.173Z,7.20
2019-04-01T23:20:54.657Z,7.20
2019-04-01T23:23:24.126Z,7.30
2019-04-01T23:25:55.103Z,7.40
2019-04-01T23:28:25.050Z,7.50
2019-04-01T23:30:54.501Z,7.50
2019-04-01T23:33:24.410Z,7.50
2019-04-01T23:35:53.815Z,7.50
2019-04-01T23:38:23.301Z,7.40
2019-04-01T23:40:52.793Z,7.30
2019-04-01T23:43:22.349Z,7.20
2019-04-01T23:45:51.823Z,7.10
2019-04-01T23:48:21.325Z,7.00
2019-04-01T23:50:50.895Z,6.90
2019-04-01T23:53:20.413Z,6.90
2019-04-01T23:55:50.394Z,6.80
2019-04-01T23:58:19.856Z,6.80
